Airfield :
LOGIN :

Register | Disclaimer

   EN    FR    IT 

 










Legend :    VFR   Marginal VFR   IFR   Intensive IFR   Very Intensive IFR
Visi :
Ceiling :
>= 8 km
>= 3000ft
5 to 8 km
1000 to 3000 ft
1500m to 5 km
500 to 1000 ft
800 to 1500m
200 to 500 ft
< 800m
< 200 ft
Symbols :   Thunderstorms  Fog  Heavy snow  Heavy precipitations  Wind > 20 kt
SIGMETs :     Misc.  Thunderstorms  Icing  Turbulence  Mountain Waves  Volcanic Ashes







- Airport Elevation : 359 ft
- IATA code : BVA
- Download approach charts


LFOB - Beauvais

CURRENT METAR :
  • 191930Z AUTO 18014KT CAVOK 17/12 Q1006 NOSIG

EXPIRED METARs :
  • 191900Z AUTO 17013KT CAVOK 17/12 Q1006 NOSIG
  • 191830Z AUTO 17011KT CAVOK 18/12 Q1006 NOSIG
  • 191800Z AUTO 17010KT CAVOK 18/12 Q1006 NOSIG
  • 191730Z AUTO 18010KT 140V200 CAVOK 19/12 Q1006 NOSIG
  • 191700Z AUTO 18010KT 9999 FEW045 BKN056 OVC096 19/12 Q1007 NOSIG

TAF TAF LFOB
Valid from the 19 at 18:00 until the 20 at 18:00 UTC


191700Z 1918/2018 20015KT 9999 BKN040
TEMPO 2000/2004 20020G30KT 4000 RA BKN012
TEMPO 2007/2015 20015G25KT
ATIS : +33 3 44 11 49 28
No reported NOTAMs for that airfield.
1 SIGMET reported for the Paris FIR (LFFF) :
 
Severe turbulence
LFFF SIGMET 1 VALID 191900/192300 LFPW
LFFF PARIS FIR/UIR SEV TURB FCST W OF LINE N4815 W00015 - N5015 E00030 SFC/FL060 MOV NE 30KT NC=



MET'MAP, your aeronautical weather chart ! - Copyright ORBIFLY December 2007 - Disclaimer

ORBIFLY MET'MAP TEAM :

Programming & Development : Alexandra Zaïnal
Concept & Development : Baudouin d'Aumeries
Co-Development & Prog : Marc-Olivier Méhu
Technical & hardware support : Manuel Goepfert

Contact : metmap@orbifly.com




SOURCES & CREDITS :

   NOAA